createdAt,value
2023-03-06T00:01:48.859Z,0.88
2023-03-06T00:04:34.928Z,0.84
2023-03-06T00:07:21.404Z,0.83
2023-03-06T00:10:14.183Z,0.86
2023-03-06T00:13:03.258Z,0.90
2023-03-06T00:15:50.333Z,0.84
2023-03-06T00:18:36.702Z,0.87
2023-03-06T00:21:23.267Z,0.82
2023-03-06T00:24:09.818Z,0.85
2023-03-06T00:26:57.208Z,0.80
2023-03-06T00:29:44.749Z,0.79
2023-03-06T00:32:31.776Z,0.76
2023-03-06T00:35:18.399Z,0.73
2023-03-06T00:38:04.481Z,0.73
2023-03-06T00:40:52.607Z,0.72
2023-03-06T00:43:40.507Z,0.70
2023-03-06T00:46:27.742Z,0.70
2023-03-06T00:49:15.639Z,0.64
2023-03-06T00:52:02.030Z,0.62
2023-03-06T00:54:48.425Z,0.76
2023-03-06T00:57:35.194Z,0.76
2023-03-06T01:00:23.874Z,0.88
2023-03-06T01:03:10.169Z,0.96
2023-03-06T01:05:56.734Z,0.88
2023-03-06T01:08:42.932Z,0.79
2023-03-06T01:11:29.229Z,0.74
2023-03-06T01:14:15.623Z,0.80
2023-03-06T01:17:03.557Z,0.74
2023-03-06T01:19:50.230Z,0.79
2023-03-06T01:22:36.554Z,0.80
2023-03-06T01:25:24.322Z,0.70
2023-03-06T01:28:10.745Z,0.62
2023-03-06T01:30:57.625Z,0.72
2023-03-06T01:33:45.398Z,0.80
2023-03-06T01:36:32.762Z,0.81
2023-03-06T01:39:18.852Z,0.75
2023-03-06T01:42:06.029Z,0.70
2023-03-06T01:45:03.536Z,0.73
2023-03-06T01:47:49.729Z,0.67
2023-03-06T01:50:37.858Z,0.63
2023-03-06T01:53:24.088Z,0.61
2023-03-06T01:56:12.717Z,0.57
2023-03-06T01:59:00.572Z,0.58
2023-03-06T02:01:48.186Z,0.55
2023-03-06T02:04:35.406Z,0.44
2023-03-06T02:07:23.453Z,0.41
2023-03-06T02:10:10.575Z,0.40
2023-03-06T02:12:57.241Z,0.35
2023-03-06T02:15:45.222Z,0.32
2023-03-06T02:18:34.020Z,0.32
2023-03-06T02:21:25.247Z,0.32
2023-03-06T02:24:32.339Z,0.26
2023-03-06T02:27:21.553Z,0.26
2023-03-06T02:30:10.214Z,0.31
2023-03-06T02:32:57.198Z,0.20
2023-03-06T02:35:50.655Z,0.17
2023-03-06T02:38:43.412Z,0.10
2023-03-06T02:41:30.678Z,0.11
2023-03-06T02:44:21.674Z,0.04
2023-03-06T02:47:08.422Z,0.03
2023-03-06T02:49:55.098Z,0.09
2023-03-06T02:52:41.329Z,0.12
2023-03-06T02:55:27.724Z,0.18
2023-03-06T02:58:15.228Z,0.30
2023-03-06T03:01:03.014Z,0.49
2023-03-06T03:03:50.085Z,0.34
2023-03-06T03:06:36.578Z,0.33
2023-03-06T03:09:23.281Z,0.32
2023-03-06T03:12:10.770Z,0.44
2023-03-06T03:14:58.029Z,0.42
2023-03-06T03:17:45.834Z,0.44
2023-03-06T03:20:32.253Z,0.41
2023-03-06T03:23:18.524Z,0.46
2023-03-06T03:26:09.198Z,0.57
2023-03-06T03:28:57.882Z,0.55
2023-03-06T03:31:44.700Z,0.59
2023-03-06T03:34:33.132Z,0.59
2023-03-06T03:37:19.901Z,0.69
2023-03-06T03:40:07.963Z,0.74
2023-03-06T03:42:54.653Z,0.73
2023-03-06T03:45:41.124Z,0.72
2023-03-06T03:48:27.744Z,0.78
2023-03-06T03:51:16.864Z,0.83
2023-03-06T03:54:08.213Z,0.86
2023-03-06T03:56:59.669Z,0.93
2023-03-06T03:59:51.145Z,0.96
2023-03-06T04:02:46.074Z,0.99
2023-03-06T04:05:41.955Z,0.97
2023-03-06T04:08:31.013Z,1.03
2023-03-06T04:11:18.057Z,1.08
2023-03-06T04:14:04.847Z,1.10
2023-03-06T04:16:51.415Z,1.12
2023-03-06T04:19:38.097Z,1.19
2023-03-06T04:22:24.484Z,1.15
2023-03-06T04:25:12.697Z,1.18
2023-03-06T04:28:00.006Z,1.20
2023-03-06T04:30:47.758Z,1.21
2023-03-06T04:33:34.451Z,1.31
2023-03-06T04:36:27.868Z,1.35
2023-03-06T04:39:17.752Z,1.34
2023-03-06T04:42:06.033Z,1.36
2023-03-06T04:44:52.182Z,1.34
2023-03-06T04:47:38.744Z,1.37
2023-03-06T04:50:26.370Z,1.39
2023-03-06T04:53:14.451Z,1.36
2023-03-06T04:56:00.658Z,1.37
2023-03-06T04:58:48.565Z,1.49
2023-03-06T05:01:34.927Z,1.50
2023-03-06T05:04:21.426Z,1.57
2023-03-06T05:07:07.968Z,1.51
2023-03-06T05:09:54.651Z,1.58
2023-03-06T05:12:41.044Z,1.50
2023-03-06T05:15:28.818Z,1.53
2023-03-06T05:18:15.343Z,1.53
2023-03-06T05:21:02.258Z,1.51
2023-03-06T05:23:48.371Z,1.51
2023-03-06T05:26:34.911Z,1.51
2023-03-06T05:29:21.501Z,1.50
2023-03-06T05:32:09.789Z,1.60
2023-03-06T05:34:56.694Z,1.60
2023-03-06T05:37:43.004Z,1.65
2023-03-06T05:40:29.540Z,1.72
2023-03-06T05:43:16.109Z,1.74
2023-03-06T05:46:03.971Z,1.74
2023-03-06T05:48:53.077Z,1.63
2023-03-06T05:51:39.525Z,1.67
2023-03-06T05:54:26.688Z,1.67
2023-03-06T05:57:13.333Z,1.70
2023-03-06T05:59:59.700Z,1.65
2023-03-06T06:02:46.910Z,1.63
2023-03-06T06:05:34.654Z,1.57
2023-03-06T06:08:21.618Z,1.57
2023-03-06T06:11:08.598Z,1.43
2023-03-06T06:13:55.126Z,1.44
2023-03-06T06:16:41.818Z,1.44
2023-03-06T06:19:29.881Z,1.43
2023-03-06T06:22:17.827Z,1.38
2023-03-06T06:25:04.505Z,1.29
2023-03-06T06:27:50.590Z,1.30
2023-03-06T06:30:37.246Z,1.29
2023-03-06T06:33:24.347Z,1.29
2023-03-06T06:36:18.609Z,1.34
2023-03-06T06:39:07.714Z,1.32
2023-03-06T06:42:09.576Z,1.38
2023-03-06T06:45:00.367Z,1.37
2023-03-06T06:47:50.120Z,1.42
2023-03-06T06:50:36.594Z,1.48
2023-03-06T06:53:22.835Z,1.49
2023-03-06T06:56:10.534Z,1.52
2023-03-06T06:59:15.308Z,1.52
2023-03-06T07:02:02.303Z,1.65
2023-03-06T07:05:02.344Z,1.68
2023-03-06T07:07:51.281Z,1.85
2023-03-06T07:10:40.078Z,1.93
2023-03-06T07:13:27.681Z,1.98
2023-03-06T07:16:13.931Z,2.11
2023-03-06T07:19:00.440Z,2.17
2023-03-06T07:21:47.076Z,2.22
2023-03-06T07:24:33.665Z,2.26
2023-03-06T07:27:20.227Z,2.21
2023-03-06T07:30:09.550Z,2.26
2023-03-06T07:32:56.224Z,2.32
2023-03-06T07:35:42.842Z,2.42
2023-03-06T07:38:28.970Z,2.38
2023-03-06T07:41:17.169Z,2.41
2023-03-06T07:44:03.837Z,2.52
2023-03-06T07:46:51.733Z,2.71
2023-03-06T07:49:38.010Z,2.70
2023-03-06T07:52:24.918Z,2.81
2023-03-06T07:55:12.683Z,2.83
2023-03-06T07:57:58.762Z,3.03
2023-03-06T08:00:45.096Z,3.11
2023-03-06T08:03:32.877Z,2.97
2023-03-06T08:06:21.951Z,3.07
2023-03-06T08:09:08.911Z,3.06
2023-03-06T08:11:55.338Z,3.08
2023-03-06T08:14:41.694Z,3.05
2023-03-06T08:17:28.056Z,2.97
2023-03-06T08:20:16.042Z,3.15
2023-03-06T08:23:02.361Z,3.38
2023-03-06T08:25:56.833Z,3.43
2023-03-06T08:28:43.573Z,3.48
2023-03-06T08:31:32.766Z,3.66
2023-03-06T08:34:22.289Z,3.85
2023-03-06T08:37:09.852Z,3.91
2023-03-06T08:39:56.527Z,3.87
2023-03-06T08:42:42.975Z,3.88
2023-03-06T08:45:29.573Z,3.87
2023-03-06T08:48:15.681Z,3.97
2023-03-06T08:51:02.047Z,3.99
2023-03-06T08:53:50.258Z,3.93
2023-03-06T08:56:36.446Z,4.11
2023-03-06T08:59:24.689Z,4.19
2023-03-06T09:02:15.109Z,4.33
2023-03-06T09:05:02.024Z,4.46
2023-03-06T09:07:48.236Z,4.69
2023-03-06T09:10:35.907Z,4.61
2023-03-06T09:13:22.645Z,4.73
2023-03-06T09:16:10.597Z,4.98
2023-03-06T09:18:58.094Z,5.22
2023-03-06T09:21:44.447Z,5.04
2023-03-06T09:24:31.323Z,5.31
2023-03-06T09:27:19.513Z,5.41
2023-03-06T09:30:06.855Z,5.26
2023-03-06T09:32:53.357Z,5.29
2023-03-06T09:35:43.592Z,5.74
2023-03-06T09:38:29.778Z,5.90
2023-03-06T09:41:26.301Z,5.86
2023-03-06T09:44:18.017Z,5.98
2023-03-06T09:47:36.921Z,6.14
2023-03-06T09:50:31.521Z,6.04
2023-03-06T09:53:39.171Z,5.95
2023-03-06T09:56:31.013Z,5.90
2023-03-06T09:59:22.510Z,5.73
2023-03-06T10:02:15.926Z,5.55
2023-03-06T10:05:06.706Z,5.99
2023-03-06T10:07:57.734Z,6.00
2023-03-06T10:10:50.109Z,6.04
2023-03-06T10:13:43.353Z,6.22
2023-03-06T10:16:33.209Z,6.71
2023-03-06T10:19:21.019Z,6.87
2023-03-06T10:22:20.650Z,6.80
2023-03-06T10:25:16.841Z,6.88
2023-03-06T10:28:14.036Z,6.85
2023-03-06T10:31:06.971Z,6.62
2023-03-06T10:33:57.235Z,7.00
2023-03-06T10:36:43.680Z,6.90
2023-03-06T10:39:30.349Z,7.02
2023-03-06T10:42:16.424Z,6.75
2023-03-06T10:45:11.446Z,7.06
2023-03-06T10:48:12.147Z,7.05
2023-03-06T10:51:18.827Z,7.14
2023-03-06T10:54:20.476Z,6.90
2023-03-06T10:57:22.146Z,7.14
2023-03-06T11:00:29.437Z,7.28
2023-03-06T11:03:21.261Z,6.73
2023-03-06T11:06:13.264Z,6.72
2023-03-06T11:09:16.551Z,6.96
2023-03-06T11:12:22.782Z,6.61
2023-03-06T11:15:20.897Z,7.04
2023-03-06T11:18:30.970Z,6.46
2023-03-06T11:21:31.728Z,6.50
2023-03-06T11:24:21.294Z,6.21
2023-03-06T11:27:22.213Z,6.15
2023-03-06T11:30:19.169Z,6.63
2023-03-06T11:33:15.669Z,6.61
2023-03-06T11:36:12.149Z,6.41
2023-03-06T11:38:59.661Z,6.14
2023-03-06T11:41:54.967Z,6.38
2023-03-06T11:44:57.181Z,6.32
2023-03-06T11:47:47.139Z,6.24
2023-03-06T11:50:37.085Z,6.20
2023-03-06T11:53:28.206Z,6.34
2023-03-06T11:56:34.251Z,6.60
2023-03-06T12:00:03.090Z,6.48
2023-03-06T12:03:28.065Z,6.65
2023-03-06T12:06:22.936Z,6.79
2023-03-06T12:09:29.588Z,6.86
2023-03-06T12:12:31.623Z,6.95
2023-03-06T12:15:26.675Z,7.25
2023-03-06T12:18:27.739Z,6.92
2023-03-06T12:21:22.602Z,7.03
2023-03-06T12:24:23.206Z,6.76
2023-03-06T12:27:16.458Z,6.69
2023-03-06T12:30:26.156Z,6.71
2023-03-06T12:33:23.570Z,6.70
2023-03-06T12:36:25.123Z,6.52
2023-03-06T12:39:17.876Z,6.55
2023-03-06T12:42:23.485Z,6.78
2023-03-06T12:45:31.759Z,6.76
2023-03-06T12:48:22.897Z,6.79
2023-03-06T12:51:13.535Z,6.52
2023-03-06T12:54:03.062Z,6.59
2023-03-06T12:56:50.234Z,6.37
2023-03-06T12:59:40.054Z,6.41
2023-03-06T13:02:58.184Z,6.38
2023-03-06T13:06:14.264Z,7.06
2023-03-06T13:09:12.658Z,7.51
2023-03-06T13:12:14.751Z,7.36
2023-03-06T13:15:07.824Z,7.42
2023-03-06T13:17:53.918Z,7.02
2023-03-06T13:20:45.040Z,7.19
2023-03-06T13:23:53.223Z,7.38
2023-03-06T13:26:55.285Z,6.90
2023-03-06T13:30:06.651Z,7.04
2023-03-06T13:32:53.742Z,6.74
2023-03-06T13:35:57.101Z,6.76
2023-03-06T13:39:09.647Z,6.56
2023-03-06T13:41:59.117Z,6.92
2023-03-06T13:44:45.898Z,6.69
2023-03-06T13:47:59.051Z,6.61
2023-03-06T13:50:44.456Z,6.65
2023-03-06T13:54:00.219Z,6.59
2023-03-06T13:57:19.583Z,6.48
2023-03-06T14:00:34.736Z,6.70
2023-03-06T14:03:49.417Z,6.68
2023-03-06T14:06:56.749Z,6.78
2023-03-06T14:09:46.506Z,6.91
2023-03-06T14:12:35.561Z,6.68
2023-03-06T14:15:25.582Z,6.59
2023-03-06T14:18:19.246Z,6.55
2023-03-06T14:21:11.723Z,6.55
2023-03-06T14:24:00.816Z,6.63
2023-03-06T14:26:51.758Z,6.56
2023-03-06T14:29:38.168Z,6.48
2023-03-06T14:32:24.966Z,6.53
2023-03-06T14:35:24.386Z,6.20
2023-03-06T14:38:16.226Z,6.31
2023-03-06T14:41:03.202Z,6.35
2023-03-06T14:43:50.704Z,6.44
2023-03-06T14:46:37.312Z,6.38
2023-03-06T14:49:26.076Z,6.35
2023-03-06T14:52:20.362Z,6.30
2023-03-06T14:55:11.951Z,6.31
2023-03-06T14:58:03.955Z,6.14
2023-03-06T15:00:55.126Z,6.00
2023-03-06T15:03:45.341Z,5.97
2023-03-06T15:06:37.754Z,5.72
2023-03-06T15:09:27.555Z,5.44
2023-03-06T15:12:38.611Z,5.46
2023-03-06T15:15:29.020Z,5.57
2023-03-06T15:18:30.953Z,5.63
2023-03-06T15:21:19.882Z,5.74
2023-03-06T15:24:32.470Z,5.54
2023-03-06T15:27:21.729Z,5.59
2023-03-06T15:30:32.383Z,5.56
2023-03-06T15:33:25.791Z,5.25
2023-03-06T15:36:27.478Z,5.10
2023-03-06T15:39:28.676Z,4.81
2023-03-06T15:42:19.268Z,4.48
2023-03-06T15:45:16.722Z,4.46
2023-03-06T15:48:03.338Z,4.37
2023-03-06T15:50:49.519Z,4.30
2023-03-06T15:53:37.430Z,4.23
2023-03-06T15:56:29.979Z,4.23
2023-03-06T15:59:24.077Z,4.20
2023-03-06T16:02:17.397Z,4.11
2023-03-06T16:05:05.662Z,4.09
2023-03-06T16:07:53.457Z,4.03
2023-03-06T16:10:43.377Z,3.74
2023-03-06T16:13:29.955Z,3.67
2023-03-06T16:16:19.351Z,3.72
2023-03-06T16:19:20.352Z,3.69
2023-03-06T16:22:12.091Z,3.66
2023-03-06T16:24:58.437Z,3.67
2023-03-06T16:27:55.345Z,3.54
2023-03-06T16:30:42.776Z,3.67
2023-03-06T16:33:29.064Z,3.61
2023-03-06T16:36:19.688Z,3.55
2023-03-06T16:39:07.042Z,3.51
2023-03-06T16:41:54.011Z,3.52
2023-03-06T16:44:41.714Z,3.44
2023-03-06T16:47:28.009Z,3.47
2023-03-06T16:50:23.448Z,3.56
2023-03-06T16:53:10.550Z,3.46
2023-03-06T16:55:56.867Z,3.47
2023-03-06T16:58:44.064Z,3.51
2023-03-06T17:01:32.048Z,3.47
2023-03-06T17:04:18.456Z,3.48
2023-03-06T17:07:05.031Z,3.48
2023-03-06T17:09:51.254Z,3.48
2023-03-06T17:12:38.753Z,3.52
2023-03-06T17:15:25.237Z,3.55
2023-03-06T17:18:13.142Z,3.59
2023-03-06T17:21:00.121Z,3.58
2023-03-06T17:23:46.355Z,3.61
2023-03-06T17:26:33.351Z,3.58
2023-03-06T17:29:19.466Z,3.55
2023-03-06T17:32:05.957Z,3.52
2023-03-06T17:34:53.845Z,3.54
2023-03-06T17:37:40.437Z,3.51
2023-03-06T17:40:27.202Z,3.49
2023-03-06T17:43:13.475Z,3.48
2023-03-06T17:46:03.937Z,3.40
2023-03-06T17:48:50.314Z,3.39
2023-03-06T17:51:39.266Z,3.35
2023-03-06T17:54:26.181Z,3.29
2023-03-06T17:57:12.518Z,3.22
2023-03-06T17:59:59.140Z,3.16
2023-03-06T18:02:46.060Z,3.11
2023-03-06T18:05:32.638Z,3.13
2023-03-06T18:08:20.336Z,3.10
2023-03-06T18:11:09.636Z,3.10
2023-03-06T18:13:56.519Z,3.05
2023-03-06T18:16:42.942Z,2.97
2023-03-06T18:19:29.317Z,2.97
2023-03-06T18:22:15.854Z,2.96
2023-03-06T18:25:04.091Z,2.92
2023-03-06T18:27:50.623Z,2.89
2023-03-06T18:30:38.004Z,2.83
2023-03-06T18:33:24.262Z,2.82
2023-03-06T18:36:10.822Z,2.77
2023-03-06T18:38:57.273Z,2.78
2023-03-06T18:41:45.662Z,2.78
2023-03-06T18:44:31.675Z,2.70
2023-03-06T18:47:18.274Z,2.70
2023-03-06T18:50:05.006Z,2.66
2023-03-06T18:52:51.391Z,2.68
2023-03-06T18:55:38.443Z,2.68
2023-03-06T18:58:26.344Z,2.66
2023-03-06T19:01:13.085Z,2.63
2023-03-06T19:04:01.942Z,2.62
2023-03-06T19:06:48.268Z,2.62
2023-03-06T19:09:35.006Z,2.58
2023-03-06T19:12:21.678Z,2.61
2023-03-06T19:15:10.496Z,2.59
2023-03-06T19:17:57.083Z,2.60
2023-03-06T19:20:43.920Z,2.64
2023-03-06T19:23:30.603Z,2.65
2023-03-06T19:26:23.370Z,2.65
2023-03-06T19:29:09.855Z,2.66
2023-03-06T19:31:58.785Z,2.68
2023-03-06T19:34:45.254Z,2.63
2023-03-06T19:37:31.611Z,2.63
2023-03-06T19:40:18.290Z,2.62
2023-03-06T19:43:04.877Z,2.61
2023-03-06T19:45:51.808Z,2.61
2023-03-06T19:48:39.842Z,2.66
2023-03-06T19:51:26.741Z,2.64
2023-03-06T19:54:13.949Z,2.69
2023-03-06T19:57:00.612Z,2.75
2023-03-06T19:59:50.534Z,2.76
2023-03-06T20:02:37.378Z,2.78
2023-03-06T20:05:25.290Z,2.82
2023-03-06T20:08:11.786Z,2.82
2023-03-06T20:10:58.289Z,2.79
2023-03-06T20:13:47.529Z,2.84
2023-03-06T20:16:34.832Z,2.88
2023-03-06T20:19:21.894Z,2.97
2023-03-06T20:22:09.290Z,3.05
2023-03-06T20:24:55.755Z,3.12
2023-03-06T20:27:42.268Z,3.15
2023-03-06T20:30:37.514Z,3.19
2023-03-06T20:33:26.438Z,3.20
2023-03-06T20:36:14.304Z,3.21
2023-03-06T20:39:04.651Z,3.26
2023-03-06T20:41:52.145Z,3.27
2023-03-06T20:44:38.537Z,3.29
2023-03-06T20:47:24.847Z,3.29
2023-03-06T20:50:12.226Z,3.30
2023-03-06T20:52:59.262Z,3.28
2023-03-06T20:55:49.691Z,3.30
2023-03-06T20:58:36.365Z,3.34
2023-03-06T21:01:24.350Z,3.33
2023-03-06T21:04:13.576Z,3.36
2023-03-06T21:06:59.783Z,3.38
2023-03-06T21:09:47.621Z,3.43
2023-03-06T21:12:35.037Z,3.45
2023-03-06T21:15:21.649Z,3.47
2023-03-06T21:18:08.163Z,3.51
2023-03-06T21:20:54.612Z,3.54
2023-03-06T21:23:41.625Z,3.61
2023-03-06T21:26:30.251Z,3.64
2023-03-06T21:29:18.085Z,3.71
2023-03-06T21:32:04.758Z,3.71
2023-03-06T21:34:51.169Z,3.75
2023-03-06T21:37:37.445Z,3.77
2023-03-06T21:40:23.902Z,3.83
2023-03-06T21:43:10.394Z,3.86
2023-03-06T21:45:59.260Z,3.85
2023-03-06T21:48:45.711Z,3.86
2023-03-06T21:51:31.848Z,3.87
2023-03-06T21:54:18.242Z,3.89
2023-03-06T21:57:04.661Z,3.86
2023-03-06T21:59:50.962Z,3.86
2023-03-06T22:02:39.205Z,3.85
2023-03-06T22:05:25.578Z,4.04
2023-03-06T22:08:11.926Z,4.13
2023-03-06T22:10:58.114Z,4.29
2023-03-06T22:13:45.233Z,4.24
2023-03-06T22:16:31.713Z,4.13
2023-03-06T22:19:19.640Z,4.05
2023-03-06T22:22:06.145Z,4.03
2023-03-06T22:24:52.514Z,4.00
2023-03-06T22:27:39.199Z,4.04
2023-03-06T22:30:25.409Z,4.07
2023-03-06T22:33:11.773Z,4.08
2023-03-06T22:36:05.993Z,4.07
2023-03-06T22:38:55.561Z,4.11
2023-03-06T22:41:42.137Z,4.16
2023-03-06T22:44:28.317Z,4.15
2023-03-06T22:47:14.763Z,4.10
2023-03-06T22:50:00.877Z,4.15
2023-03-06T22:52:48.631Z,4.07
2023-03-06T22:55:35.846Z,4.13
2023-03-06T22:58:21.979Z,4.08
2023-03-06T23:01:11.350Z,4.12
2023-03-06T23:03:59.964Z,4.12
2023-03-06T23:06:46.986Z,4.16
2023-03-06T23:09:34.990Z,4.15
2023-03-06T23:12:41.576Z,4.12
2023-03-06T23:15:47.045Z,4.06
2023-03-06T23:18:52.749Z,4.05
2023-03-06T23:21:58.193Z,4.00
2023-03-06T23:25:05.920Z,4.02
2023-03-06T23:27:52.450Z,4.06
2023-03-06T23:30:39.151Z,4.10
2023-03-06T23:33:25.602Z,3.99
2023-03-06T23:36:13.345Z,4.00
2023-03-06T23:38:59.806Z,3.89
2023-03-06T23:41:47.875Z,3.85
2023-03-06T23:44:35.615Z,3.80
2023-03-06T23:47:21.823Z,3.83
2023-03-06T23:50:09.095Z,3.80
2023-03-06T23:52:55.683Z,3.88
2023-03-06T23:55:42.571Z,3.92
2023-03-06T23:58:31.046Z,3.90
